Aktualne dane pomiarowe

Uwaga, wersja testowa! Automatyczne pobieranie danych za pomocą narzędzi lub skryptów to umożliwiających jest zabronione.

Dane meteo z obszaru Polski uzyskane na podstawie depesz SYNOP pobieranych co godzinę z NWS. Najedź myszką na symbol przedstawiony w tabeli, aby uzyskać informacje co do jego znaczenia. Prosimy pamiętać, że to testowa wersja strony, która jeszcze nie jest ukończona. Stworzono również jest krótki FAQ dotyczący korzystania z tej podstrony Anomalie temperatury w chwili obecnej odniesione są do okresu referencyjnego 1951-2016. Okres ten będzie później zmieniony na 1981-2010. Kliknij ikonę aby pobrać plik CSV. Kliknij ikonę aby wygenerować mapę synoptyczną dla danego terminu.

Wybierz Datę:    

        

Łask (12454)

Dane terminowe dla wybranej stacji. Kliknij datę, aby otrzymać dane z tego terminu dla wszystkich stacji.

TemperaturaZachmurzenieWiatrCiśnienieOpadyPogoda
 Data t td wb tx tn tg rh  Nt Nl Cl Cm Ch ws wd g1 g2 wx mslp ppp ch 24h 12h t ww ww w1 w2  
2019-06-17 23:00:00 15.8 11.6 13.1--- 7650.0wx-2wx---1021.7 999.0 0.6---------
2019-06-17 22:00:00 16.2 11.8 13.3--- 7550.0wx-2wx---1021.6 999.0 0.6---------
2019-06-17 21:00:00 17.3 11.2 13.5--- 6755.0wx-wx2wx---1021.4 998.8 0.9---------
2019-06-17 20:00:00 18.3 10.7 13.6--- 6165.0wx-wx1wx---1020.9 998.4 0.6---------
2019-06-17 19:00:00 20.2 10.1 14.2--- 5265.0wx-wx3wx---1020.7 998.3 0.2---------
2019-06-17 18:00:00 21.8 10.5 15.1 24.5 17.6- 4965.0wxwxwxwx4wx---1020.1 997.9 -0.4- 0.012------
2019-06-17 17:00:00 22.4 10.1 15.1--- 4670.0wxwxwxwx4wx---1020.1 997.9 -0.7---------
2019-06-17 16:00:00 24.0 9.1 15.4--- 3970.0wxwxwxwx5wx---1020.2 998.1 -0.8---------
2019-06-17 15:00:00 24.1 9.0 15.4--- 3870.0wxwxwxwx4wx-10-1020.4 998.3 -0.8---------
2019-06-17 14:00:00 24.2 8.3 15.1--- 3670.0wxwxwxwx5wx---1020.8 998.7 -0.5---------
2019-06-17 12:00:00 22.8 8.5 14.6--- 4070.0wxwxwxwx5wx---1021.3 999.1 -0.2- 0.06------
2019-06-17 11:00:00 22.4 9.7 15.0--- 4470.0wxwxwxwx3wx---1021.4 999.2 -0.3---------
2019-06-17 10:00:00 21.7 9.5 14.6--- 4670.0wxwxwxwx4wx---1021.6 999.3 -0.1---------
2019-06-17 09:00:00 20.5 9.5 14.0--- 4970.0wxwxwxwx5wx---1021.7 999.3 -0.1---------
2019-06-17 08:00:00 19.4 9.6 13.6--- 5360.0wxwxwxwx6wx---1022.0 999.5 0.3---------
2019-06-17 07:00:00 18.6 9.1 13.0--- 5460.0wxwxwxwx5wx---1021.9 999.4 0.6---------
2019-06-17 06:00:00 17.5 9.8 12.8 23.2 12.3 10 6165.0wx-wx4wx---1022.0 999.4 1.0 0.0 0.012------
2019-06-17 05:00:00 16.4 10.4 12.7--- 6830.0wx-wx3wx---1021.9 999.2 0.6---------
2019-06-17 04:00:00 14.9 11.3 12.5--- 7930.0wx-wx2wx---1021.6 998.8 0.6---------
2019-06-17 03:00:00 12.4 10.0 10.8--- 8550.0wx-3wx---1021.4 998.4 0.2---------
2019-06-17 02:00:00 13.8 10.8 11.8--- 8255.0wx-3wx---1021.5 998.6 0.6---------
2019-06-17 01:00:00 14.4 11.5 12.5--- 8355.0wx-2wx---1021.1 998.3 0.6---------
2019-06-17 00:00:00 16.1 10.9 12.8--- 7165.0wx-2wx---1020.9 998.3 1.0- 0.06------
2019-06-16 23:00:00 16.6 12.2 13.7--- 7560.0wx-3wx---1020.6 998.0 2.2---------
2019-06-16 22:00:00 17.6 12.5 14.3--- 7260.0wx-3wx---1020.2 997.7 2.0---------
2019-06-16 21:00:00 18.9 12.4 14.8--- 6630.0wx-wx3wx---1019.6 997.2 2.0---------
2019-06-16 20:00:00 19.8 12.9 15.4--- 6430.0wx-wx4wx---1018.1 995.8 0.9---------
2019-06-16 19:00:00 21.7 14.1 16.8--- 6230.0wx-wxwx5wx---1017.9 995.7 1.5---------
2019-06-16 18:00:00 23.2 14.1 17.4 25.8 21.8- 5730.0wx-wxwx3wx---1017.3 995.3 0.8- 0.012------
2019-06-16 17:00:00 24.0 14.0 17.7--- 5430.0wxwxwxwxwx5wx---1017.0 995.0 -0.1---------
2019-06-16 16:00:00 24.3 13.8 17.7--- 5230.0wxwxwxwxwx5wx---1016.1 994.2 -0.1---------
2019-06-16 15:00:00 24.3 14.2 17.9--- 5330.0wxwxwxwxwx4wx---1016.4 994.5 -0.3---------
2019-06-16 14:00:00 24.5 14.1 17.9--- 5230.0wxwxwxwxwx4wx---1017.0 995.1 0.5---------
2019-06-16 13:00:00 24.9 13.8 17.9--- 5030.0wxwxwxwx5wx---1016.2 994.3 -0.1---------
2019-06-16 12:00:00 24.7 14.8 18.4--- 5430.0wxwxwxwx6wx---1016.7 994.8 0.9- 0.06------
2019-06-16 11:00:00 24.6 15.4 18.6--- 5730.0wxwxwx7wx---1016.5 994.6 1.4---------
2019-06-16 10:00:00 23.7 16.5 18.9--- 6430.0wxwxwx6wx---1016.3 994.4 1.7---------
2019-06-16 09:00:00 23.7 17.3 19.4--- 6730.0wxwxwx6wx---1015.8 993.9 1.9---------
2019-06-16 08:00:00 23.6 18.0 19.8--- 7130.0wxwxwx6wx---1015.1 993.2 1.1---------
2019-06-16 07:00:00 22.4 17.4 19.0--- 7330.0wxwxwx5wx---1014.7 992.7 1.5---------
2019-06-16 06:00:00 21.7 17.4 18.7 28.7 17.5- 7730.0wxwxwxwxwx5wx---1014.0 992.0 0.6 0.0 0.012------
2019-06-16 05:00:00 19.5 16.6 17.5--- 8340.0wx-wxwx2wx---1014.2 992.0 1.1---------
2019-06-16 04:00:00 18.3 15.9 16.6--- 8645.0wx-3wx---1013.6 991.3 0.7---------
2019-06-16 03:00:00 17.9 15.2 16.0--- 8450.0wx-2wx---1013.7 991.4 0.8---------
2019-06-16 02:00:00 17.7 15.1 15.9--- 8545.0wx-3wx---1013.3 990.9 0.4---------
2019-06-16 01:00:00 19.2 15.3 16.5--- 7845.0wx-2wx---1012.8 990.6 0.4---------
2019-06-16 00:00:00 20.9 15.2 17.1--- 7045.0wx-3wx---1012.6 990.5 2.1- 0.06------
29.9 ms

 

Print Friendly, PDF & Email